createdAt,value
2022-09-09T00:00:25.197Z,97.27
2022-09-09T00:03:15.528Z,97.09
2022-09-09T00:05:53.715Z,97.27
2022-09-09T00:08:24.355Z,97.21
2022-09-09T00:10:59.743Z,97.34
2022-09-09T00:13:43.620Z,97.31
2022-09-09T00:16:25.950Z,96.92
2022-09-09T00:18:55.204Z,96.99
2022-09-09T00:21:30.734Z,96.95
2022-09-09T00:23:57.465Z,96.77
2022-09-09T00:26:24.801Z,96.82
2022-09-09T00:29:05.169Z,96.38
2022-09-09T00:31:32.952Z,96.25
2022-09-09T00:34:10.436Z,96.69
2022-09-09T00:36:38.056Z,96.58
2022-09-09T00:39:05.169Z,96.82
2022-09-09T00:41:38.800Z,96.70
2022-09-09T00:44:52.075Z,96.96
2022-09-09T00:47:27.190Z,97.02
2022-09-09T00:50:18.032Z,97.02
2022-09-09T00:53:01.764Z,96.81
2022-09-09T00:55:38.946Z,97.09
2022-09-09T00:58:09.067Z,96.88
2022-09-09T01:00:54.310Z,97.38
2022-09-09T01:03:29.826Z,97.02
2022-09-09T01:06:06.115Z,97.06
2022-09-09T01:09:03.233Z,96.62
2022-09-09T01:11:50.888Z,96.94
2022-09-09T01:14:35.705Z,96.79
2022-09-09T01:17:08.609Z,97.06
2022-09-09T01:19:50.248Z,96.84
2022-09-09T01:22:27.381Z,96.94
2022-09-09T01:25:11.118Z,97.07
2022-09-09T01:27:38.572Z,96.94
2022-09-09T01:30:14.086Z,96.32
2022-09-09T01:32:48.137Z,96.54
2022-09-09T01:35:42.344Z,96.74
2022-09-09T01:38:09.114Z,96.75
2022-09-09T01:40:35.744Z,96.78
2022-09-09T01:43:02.181Z,96.44
2022-09-09T01:45:29.735Z,96.49
2022-09-09T01:47:57.469Z,96.41
2022-09-09T01:50:24.682Z,96.63
2022-09-09T01:52:56.790Z,96.28
2022-09-09T01:55:31.016Z,96.17
2022-09-09T01:58:17.642Z,96.60
2022-09-09T02:01:01.182Z,96.65
2022-09-09T02:03:34.673Z,96.63
2022-09-09T02:06:19.797Z,96.84
2022-09-09T02:08:46.334Z,97.12
2022-09-09T02:11:14.615Z,97.32
2022-09-09T02:13:43.818Z,97.10
2022-09-09T02:16:29.121Z,97.21
2022-09-09T02:19:27.800Z,96.74
2022-09-09T02:21:57.304Z,96.94
2022-09-09T02:24:24.049Z,96.75
2022-09-09T02:26:54.175Z,96.32
2022-09-09T02:29:25.269Z,96.51
2022-09-09T02:31:54.748Z,96.30
2022-09-09T02:34:25.158Z,96.29
2022-09-09T02:36:54.766Z,96.60
2022-09-09T02:39:21.247Z,96.44
2022-09-09T02:41:48.351Z,96.29
2022-09-09T02:44:20.530Z,96.22
2022-09-09T02:46:54.894Z,96.04
2022-09-09T02:49:31.237Z,95.95
2022-09-09T02:52:21.138Z,96.33
2022-09-09T02:54:49.937Z,95.97
2022-09-09T02:57:26.514Z,96.51
2022-09-09T02:59:53.707Z,96.36
2022-09-09T03:02:20.233Z,96.03
2022-09-09T03:04:51.729Z,95.97
2022-09-09T03:07:19.445Z,96.26
2022-09-09T03:09:46.564Z,96.04
2022-09-09T03:12:13.096Z,96.22
2022-09-09T03:14:40.119Z,96.27
2022-09-09T03:17:07.006Z,95.95
2022-09-09T03:19:36.239Z,95.86
2022-09-09T03:22:02.716Z,95.87
2022-09-09T03:24:29.115Z,96.03
2022-09-09T03:26:56.762Z,96.10
2022-09-09T03:29:23.202Z,95.84
2022-09-09T03:31:49.736Z,96.02
2022-09-09T03:34:16.279Z,95.93
2022-09-09T03:36:42.768Z,95.59
2022-09-09T03:39:09.189Z,95.42
2022-09-09T03:41:35.608Z,95.71
2022-09-09T03:44:02.203Z,95.52
2022-09-09T03:46:28.637Z,95.52
2022-09-09T03:48:55.152Z,95.50
2022-09-09T03:51:22.938Z,95.36
2022-09-09T03:53:49.435Z,95.42
2022-09-09T03:56:16.190Z,95.08
2022-09-09T03:58:42.678Z,95.18
2022-09-09T04:01:14.329Z,95.34
2022-09-09T04:03:41.990Z,95.45
2022-09-09T04:06:10.547Z,95.46
2022-09-09T04:08:37.234Z,95.51
2022-09-09T04:11:07.388Z,95.73
2022-09-09T04:13:35.150Z,95.71
2022-09-09T04:16:04.587Z,95.83
2022-09-09T04:18:32.059Z,95.67
2022-09-09T04:20:58.897Z,95.72
2022-09-09T04:23:28.157Z,95.30
2022-09-09T04:25:56.239Z,95.62
2022-09-09T04:28:24.956Z,95.69
2022-09-09T04:30:51.953Z,95.73
2022-09-09T04:33:18.386Z,95.77
2022-09-09T04:35:46.919Z,95.81
2022-09-09T04:38:13.542Z,95.87
2022-09-09T04:40:43.754Z,96.05
2022-09-09T04:43:14.294Z,95.94
2022-09-09T04:45:41.901Z,95.90
2022-09-09T04:48:09.109Z,95.91
2022-09-09T04:50:35.510Z,95.57
2022-09-09T04:53:03.031Z,95.40
2022-09-09T04:55:29.704Z,95.26
2022-09-09T04:57:56.122Z,95.54
2022-09-09T05:00:22.520Z,95.51
2022-09-09T05:02:48.948Z,95.57
2022-09-09T05:05:15.443Z,95.59
2022-09-09T05:07:42.692Z,95.36
2022-09-09T05:10:09.501Z,95.49
2022-09-09T05:12:35.938Z,95.24
2022-09-09T05:15:02.589Z,95.52
2022-09-09T05:17:29.880Z,95.43
2022-09-09T05:19:56.315Z,95.53
2022-09-09T05:22:24.058Z,95.78
2022-09-09T05:24:54.044Z,95.34
2022-09-09T05:27:20.480Z,95.23
2022-09-09T05:29:47.415Z,95.12
2022-09-09T05:32:16.017Z,94.95
2022-09-09T05:34:42.624Z,95.58
2022-09-09T05:37:09.074Z,95.71
2022-09-09T05:39:37.831Z,95.64
2022-09-09T05:42:05.430Z,95.78
2022-09-09T05:44:32.464Z,95.88
2022-09-09T05:46:59.076Z,95.87
2022-09-09T05:49:26.273Z,95.64
2022-09-09T05:51:52.778Z,95.80
2022-09-09T05:54:19.618Z,95.65
2022-09-09T05:56:49.829Z,95.69
2022-09-09T05:59:18.166Z,95.80
2022-09-09T06:01:46.356Z,95.82
2022-09-09T06:04:13.366Z,95.76
2022-09-09T06:06:40.915Z,95.95
2022-09-09T06:09:10.843Z,95.73
2022-09-09T06:11:39.625Z,95.86
2022-09-09T06:14:07.175Z,95.20
2022-09-09T06:16:34.747Z,95.42
2022-09-09T06:19:02.122Z,95.40
2022-09-09T06:21:39.480Z,95.37
2022-09-09T06:24:08.266Z,95.72
2022-09-09T06:26:41.584Z,95.43
2022-09-09T06:29:08.646Z,95.75
2022-09-09T06:31:37.791Z,95.73
2022-09-09T06:34:08.982Z,96.07
2022-09-09T06:36:38.044Z,95.88
2022-09-09T06:39:05.303Z,95.96
2022-09-09T06:41:33.976Z,95.28
2022-09-09T06:44:00.711Z,95.77
2022-09-09T06:46:29.564Z,95.61
2022-09-09T06:48:59.721Z,95.62
2022-09-09T06:51:31.496Z,95.33
2022-09-09T06:54:00.203Z,94.94
2022-09-09T06:56:31.216Z,94.59
2022-09-09T06:59:00.289Z,94.68
2022-09-09T07:01:29.790Z,95.21
2022-09-09T07:03:59.842Z,95.10
2022-09-09T07:06:28.943Z,94.47
2022-09-09T07:08:58.728Z,94.70
2022-09-09T07:11:30.909Z,94.62
2022-09-09T07:14:01.323Z,94.59
2022-09-09T07:16:28.809Z,94.20
2022-09-09T07:18:58.912Z,93.52
2022-09-09T07:21:29.983Z,94.41
2022-09-09T07:23:57.008Z,94.38
2022-09-09T07:26:26.300Z,92.71
2022-09-09T07:28:53.126Z,93.32
2022-09-09T07:31:34.986Z,93.19
2022-09-09T07:34:02.175Z,93.30
2022-09-09T07:36:37.710Z,92.59
2022-09-09T07:39:07.803Z,92.68
2022-09-09T07:41:36.003Z,91.60
2022-09-09T07:44:11.829Z,92.40
2022-09-09T07:46:40.789Z,91.68
2022-09-09T07:49:08.048Z,90.31
2022-09-09T07:51:40.171Z,89.97
2022-09-09T07:54:10.211Z,89.70
2022-09-09T07:56:40.108Z,90.17
2022-09-09T07:59:07.313Z,90.11
2022-09-09T08:01:40.302Z,89.21
2022-09-09T08:04:18.232Z,89.56
2022-09-09T08:06:47.931Z,90.33
2022-09-09T08:09:14.912Z,88.53
2022-09-09T08:11:42.139Z,89.52
2022-09-09T08:14:10.197Z,89.68
2022-09-09T08:16:41.290Z,89.55
2022-09-09T08:19:08.413Z,88.61
2022-09-09T08:21:37.569Z,89.24
2022-09-09T08:24:06.090Z,89.20
2022-09-09T08:26:38.326Z,88.97
2022-09-09T08:29:07.598Z,89.00
2022-09-09T08:32:00.836Z,89.08
2022-09-09T08:34:28.083Z,88.42
2022-09-09T08:36:55.398Z,88.22
2022-09-09T08:39:23.747Z,87.99
2022-09-09T08:42:12.771Z,88.41
2022-09-09T08:45:01.436Z,88.45
2022-09-09T08:48:00.949Z,89.06
2022-09-09T08:50:30.901Z,87.42
2022-09-09T08:53:22.839Z,88.85
2022-09-09T08:56:09.893Z,87.28
2022-09-09T08:58:51.329Z,87.82
2022-09-09T09:01:29.931Z,87.96
2022-09-09T09:04:08.619Z,87.79
2022-09-09T09:07:07.298Z,86.97
2022-09-09T09:10:02.872Z,86.76
2022-09-09T09:12:39.952Z,85.38
2022-09-09T09:15:18.096Z,86.60
2022-09-09T09:17:44.789Z,86.29
2022-09-09T09:20:24.157Z,86.33
2022-09-09T09:22:53.796Z,86.22
2022-09-09T09:25:40.537Z,86.56
2022-09-09T09:28:18.745Z,86.56
2022-09-09T09:30:55.648Z,85.76
2022-09-09T09:33:25.118Z,85.22
2022-09-09T09:35:52.090Z,85.30
2022-09-09T09:41:10.906Z,84.58
2022-09-09T09:43:40.914Z,84.58
2022-09-09T09:46:26.572Z,84.34
2022-09-09T09:49:01.054Z,84.51
2022-09-09T09:51:29.912Z,83.93
2022-09-09T09:54:10.705Z,84.37
2022-09-09T09:56:37.341Z,83.54
2022-09-09T09:59:09.352Z,83.66
2022-09-09T10:01:44.543Z,83.12
2022-09-09T10:04:19.736Z,83.54
2022-09-09T10:06:46.202Z,83.00
2022-09-09T10:09:35.246Z,83.32
2022-09-09T10:12:16.663Z,83.63
2022-09-09T10:15:18.066Z,84.21
2022-09-09T10:18:03.871Z,84.53
2022-09-09T10:21:01.693Z,84.21
2022-09-09T10:23:49.486Z,86.01
2022-09-09T10:26:19.667Z,87.00
2022-09-09T10:29:23.330Z,86.95
2022-09-09T10:32:09.813Z,88.06
2022-09-09T10:35:02.175Z,89.31
2022-09-09T10:37:38.469Z,92.61
2022-09-09T10:40:27.310Z,94.91
2022-09-09T10:43:30.621Z,95.94
2022-09-09T10:46:06.137Z,96.86
2022-09-09T10:48:44.351Z,97.17
2022-09-09T10:51:18.343Z,97.87
2022-09-09T10:53:57.267Z,98.41
2022-09-09T10:56:24.911Z,98.23
2022-09-09T10:59:05.830Z,96.34
2022-09-09T11:01:42.907Z,97.10
2022-09-09T11:04:24.934Z,97.34
2022-09-09T11:06:58.058Z,97.50
2022-09-09T11:09:43.226Z,97.74
2022-09-09T11:12:16.803Z,96.02
2022-09-09T11:15:04.151Z,96.66
2022-09-09T11:17:51.744Z,96.53
2022-09-09T11:20:18.942Z,96.80
2022-09-09T11:22:59.074Z,97.44
2022-09-09T11:25:48.474Z,97.02
2022-09-09T11:28:17.974Z,95.99
2022-09-09T11:30:56.126Z,94.61
2022-09-09T11:33:26.198Z,94.12
2022-09-09T11:36:05.898Z,95.19
2022-09-09T11:38:39.908Z,94.41
2022-09-09T11:41:10.054Z,93.99
2022-09-09T11:44:00.398Z,94.13
2022-09-09T11:46:37.484Z,94.86
2022-09-09T11:49:06.550Z,94.02
2022-09-09T11:51:34.934Z,93.92
2022-09-09T11:54:30.415Z,95.09
2022-09-09T11:56:57.749Z,93.73
2022-09-09T11:59:34.348Z,94.07
2022-09-09T12:02:04.798Z,92.25
2022-09-09T12:04:37.937Z,93.58
2022-09-09T12:07:07.016Z,94.69
2022-09-09T12:09:49.569Z,95.27
2022-09-09T12:12:16.009Z,96.31
2022-09-09T12:14:42.416Z,97.09
2022-09-09T12:17:27.394Z,97.56
2022-09-09T12:20:34.686Z,97.49
2022-09-09T12:23:27.968Z,96.59
2022-09-09T12:25:57.034Z,96.74
2022-09-09T12:28:44.851Z,95.07
2022-09-09T12:31:19.301Z,94.00
2022-09-09T12:33:49.070Z,93.98
2022-09-09T12:36:20.524Z,94.68
2022-09-09T12:38:47.694Z,94.95
2022-09-09T12:41:24.371Z,93.33
2022-09-09T12:43:51.805Z,94.02
2022-09-09T12:46:46.009Z,93.97
2022-09-09T12:49:35.804Z,93.26
2022-09-09T12:52:10.861Z,93.48
2022-09-09T12:54:38.670Z,91.98
2022-09-09T12:57:06.719Z,90.73
2022-09-09T12:59:46.126Z,92.22
2022-09-09T13:02:25.727Z,92.39
2022-09-09T13:04:53.467Z,93.33
2022-09-09T13:07:21.016Z,92.79
2022-09-09T13:09:49.697Z,93.09
2022-09-09T13:12:26.338Z,93.39
2022-09-09T13:14:57.194Z,92.29
2022-09-09T13:17:26.684Z,91.98
2022-09-09T13:19:54.239Z,91.54
2022-09-09T13:22:31.665Z,92.47
2022-09-09T13:25:04.747Z,92.54
2022-09-09T13:27:39.627Z,92.22
2022-09-09T13:30:23.883Z,92.44
2022-09-09T13:33:05.832Z,92.88
2022-09-09T13:35:33.623Z,90.04
2022-09-09T13:38:09.537Z,90.41
2022-09-09T13:40:37.842Z,88.78
2022-09-09T13:43:04.614Z,89.52
2022-09-09T13:45:31.252Z,89.36
2022-09-09T13:47:57.834Z,89.79
2022-09-09T13:50:29.999Z,89.29
2022-09-09T13:53:00.325Z,90.09
2022-09-09T13:55:29.133Z,89.02
2022-09-09T13:58:03.669Z,87.24
2022-09-09T14:00:32.225Z,87.33
2022-09-09T14:02:58.739Z,86.83
2022-09-09T14:05:26.078Z,86.32
2022-09-09T14:07:53.347Z,88.20
2022-09-09T14:10:20.440Z,87.51
2022-09-09T14:12:47.693Z,86.47
2022-09-09T14:15:15.436Z,85.81
2022-09-09T14:17:41.885Z,84.69
2022-09-09T14:20:09.474Z,85.68
2022-09-09T14:22:37.360Z,85.51
2022-09-09T14:25:04.607Z,84.01
2022-09-09T14:27:31.151Z,85.92
2022-09-09T14:29:58.655Z,86.53
2022-09-09T14:32:25.148Z,84.82
2022-09-09T14:34:51.645Z,84.76
2022-09-09T14:37:19.439Z,83.04
2022-09-09T14:39:47.923Z,81.20
2022-09-09T14:42:15.873Z,82.13
2022-09-09T14:44:42.541Z,82.33
2022-09-09T14:47:09.427Z,80.08
2022-09-09T14:49:36.849Z,78.86
2022-09-09T14:52:03.610Z,79.53
2022-09-09T14:54:30.126Z,80.14
2022-09-09T14:56:58.119Z,79.04
2022-09-09T14:59:24.662Z,79.93
2022-09-09T15:01:51.338Z,80.83
2022-09-09T15:04:18.226Z,78.60
2022-09-09T15:06:48.037Z,77.75
2022-09-09T15:09:15.538Z,77.35
2022-09-09T15:11:42.014Z,77.23
2022-09-09T15:14:10.025Z,76.78
2022-09-09T15:16:37.298Z,77.44
2022-09-09T15:19:04.665Z,77.17
2022-09-09T15:21:35.369Z,77.79
2022-09-09T15:24:01.873Z,78.91
2022-09-09T15:26:28.671Z,77.07
2022-09-09T15:28:55.740Z,77.69
2022-09-09T15:31:24.312Z,78.59
2022-09-09T15:34:01.573Z,78.30
2022-09-09T15:36:39.188Z,78.20
2022-09-09T15:39:08.694Z,76.92
2022-09-09T15:41:35.630Z,74.90
2022-09-09T15:44:02.734Z,75.38
2022-09-09T15:46:29.340Z,75.93
2022-09-09T15:49:03.791Z,76.34
2022-09-09T15:51:42.316Z,77.29
2022-09-09T15:54:10.955Z,76.99
2022-09-09T15:56:37.388Z,77.48
2022-09-09T15:59:04.595Z,77.93
2022-09-09T16:01:32.774Z,78.27
2022-09-09T16:04:00.946Z,78.15
2022-09-09T16:06:29.707Z,78.86
2022-09-09T16:08:58.042Z,79.00
2022-09-09T16:11:36.945Z,78.59
2022-09-09T16:14:05.045Z,78.68
2022-09-09T16:16:32.201Z,79.35
2022-09-09T16:19:01.026Z,79.67
2022-09-09T16:21:33.916Z,79.35
2022-09-09T16:24:03.350Z,79.94
2022-09-09T16:26:32.376Z,79.40
2022-09-09T16:29:00.478Z,80.24
2022-09-09T16:31:28.593Z,79.91
2022-09-09T16:33:55.172Z,79.91
2022-09-09T16:36:23.993Z,80.61
2022-09-09T16:38:55.801Z,81.12
2022-09-09T16:41:23.063Z,80.91
2022-09-09T16:43:57.024Z,81.77
2022-09-09T16:46:25.226Z,81.44
2022-09-09T16:48:52.667Z,81.25
2022-09-09T16:51:26.358Z,81.35
2022-09-09T16:53:54.155Z,81.32
2022-09-09T16:56:23.354Z,81.61
2022-09-09T16:58:52.060Z,81.80
2022-09-09T17:01:18.583Z,81.43
2022-09-09T17:03:45.127Z,81.00
2022-09-09T17:06:13.649Z,81.35
2022-09-09T17:08:42.353Z,80.80
2022-09-09T17:11:19.770Z,81.02
2022-09-09T17:13:48.999Z,80.66
2022-09-09T17:16:18.036Z,81.16
2022-09-09T17:18:44.824Z,81.06
2022-09-09T17:21:15.025Z,80.74
2022-09-09T17:23:42.331Z,81.65
2022-09-09T17:26:11.257Z,81.63
2022-09-09T17:28:39.430Z,82.03
2022-09-09T17:31:07.851Z,82.03
2022-09-09T17:33:37.041Z,82.01
2022-09-09T17:36:18.546Z,81.94
2022-09-09T17:38:45.181Z,81.85
2022-09-09T17:41:26.680Z,81.40
2022-09-09T17:43:53.587Z,81.42
2022-09-09T17:46:25.887Z,81.69
2022-09-09T17:48:56.901Z,81.54
2022-09-09T17:51:26.977Z,81.50
2022-09-09T17:53:55.688Z,81.50
2022-09-09T17:56:24.484Z,81.60
2022-09-09T17:58:51.648Z,81.83
2022-09-09T18:01:19.515Z,81.90
2022-09-09T18:03:47.540Z,82.07
2022-09-09T18:06:16.846Z,81.95
2022-09-09T18:08:47.729Z,82.12
2022-09-09T18:11:14.292Z,82.06
2022-09-09T18:13:41.111Z,82.48
2022-09-09T18:16:10.041Z,82.26
2022-09-09T18:18:37.343Z,82.47
2022-09-09T18:21:06.603Z,82.29
2022-09-09T18:23:38.071Z,82.28
2022-09-09T18:26:25.772Z,82.66
2022-09-09T18:28:55.918Z,82.83
2022-09-09T18:31:25.253Z,82.66
2022-09-09T18:33:53.533Z,82.92
2022-09-09T18:36:26.875Z,83.24
2022-09-09T18:38:54.039Z,82.99
2022-09-09T18:41:27.545Z,83.64
2022-09-09T18:43:57.868Z,83.49
2022-09-09T18:46:26.468Z,83.43
2022-09-09T18:48:53.066Z,83.27
2022-09-09T18:51:21.945Z,83.26
2022-09-09T18:53:53.548Z,83.09
2022-09-09T18:56:20.981Z,83.51
2022-09-09T18:58:51.083Z,83.09
2022-09-09T19:01:17.654Z,83.60
2022-09-09T19:03:44.736Z,83.69
2022-09-09T19:06:13.964Z,83.51
2022-09-09T19:08:42.654Z,83.93
2022-09-09T19:11:11.866Z,84.53
2022-09-09T19:13:39.260Z,85.06
2022-09-09T19:16:12.037Z,85.58
2022-09-09T19:18:39.714Z,86.01
2022-09-09T19:21:13.469Z,87.06
2022-09-09T19:23:41.048Z,88.34
2022-09-09T19:26:08.306Z,89.48
2022-09-09T19:28:35.969Z,89.93
2022-09-09T19:31:07.935Z,90.19
2022-09-09T19:33:35.830Z,91.08
2022-09-09T19:36:09.192Z,90.83
2022-09-09T19:38:35.719Z,91.00
2022-09-09T19:41:07.407Z,91.63
2022-09-09T19:43:34.958Z,91.79
2022-09-09T19:46:04.441Z,91.95
2022-09-09T19:48:32.681Z,92.06
2022-09-09T19:51:04.811Z,92.55
2022-09-09T19:53:35.991Z,92.42
2022-09-09T19:56:05.783Z,92.57
2022-09-09T19:58:34.370Z,92.88
2022-09-09T20:01:10.596Z,92.48
2022-09-09T20:03:38.449Z,92.61
2022-09-09T20:06:09.892Z,92.82
2022-09-09T20:08:38.041Z,93.04
2022-09-09T20:11:06.027Z,93.22
2022-09-09T20:13:35.625Z,92.87
2022-09-09T20:16:05.907Z,93.40
2022-09-09T20:18:35.250Z,93.60
2022-09-09T20:21:05.450Z,93.79
2022-09-09T20:23:31.989Z,93.96
2022-09-09T20:26:03.039Z,93.80
2022-09-09T20:28:29.847Z,93.94
2022-09-09T20:30:56.423Z,93.76
2022-09-09T20:33:22.913Z,93.91
2022-09-09T20:35:49.555Z,93.93
2022-09-09T20:38:16.075Z,94.38
2022-09-09T20:40:42.645Z,94.01
2022-09-09T20:43:12.595Z,94.21
2022-09-09T20:45:39.693Z,93.75
2022-09-09T20:48:07.284Z,94.02
2022-09-09T20:50:37.056Z,94.37
2022-09-09T20:53:04.239Z,93.95
2022-09-09T20:55:31.675Z,93.75
2022-09-09T20:57:58.508Z,93.98
2022-09-09T21:00:24.974Z,94.12
2022-09-09T21:02:51.606Z,94.00
2022-09-09T21:05:23.807Z,94.03
2022-09-09T21:07:50.624Z,93.89
2022-09-09T21:10:18.160Z,94.22
2022-09-09T21:12:45.042Z,94.27
2022-09-09T21:15:11.796Z,94.47
2022-09-09T21:17:40.208Z,94.51
2022-09-09T21:20:07.304Z,94.18
2022-09-09T21:22:33.725Z,94.33
2022-09-09T21:25:00.191Z,94.11
2022-09-09T21:27:26.656Z,94.31
2022-09-09T21:29:53.075Z,94.38
2022-09-09T21:32:21.361Z,94.24
2022-09-09T21:34:47.794Z,94.25
2022-09-09T21:37:14.261Z,94.60
2022-09-09T21:39:42.007Z,94.62
2022-09-09T21:42:08.500Z,94.21
2022-09-09T21:44:34.910Z,94.63
2022-09-09T21:47:01.486Z,94.31
2022-09-09T21:49:27.928Z,94.64
2022-09-09T21:51:55.078Z,94.33
2022-09-09T21:54:21.551Z,94.49
2022-09-09T21:56:49.778Z,94.24
2022-09-09T21:59:16.203Z,94.51
2022-09-09T22:01:43.056Z,94.42
2022-09-09T22:04:09.648Z,94.50
2022-09-09T22:06:36.053Z,94.77
2022-09-09T22:09:03.529Z,94.42
2022-09-09T22:11:31.320Z,94.21
2022-09-09T22:13:57.861Z,94.42
2022-09-09T22:16:25.433Z,94.38
2022-09-09T22:18:57.790Z,94.41
2022-09-09T22:21:26.066Z,94.25
2022-09-09T22:23:54.513Z,94.20
2022-09-09T22:26:21.737Z,94.54
2022-09-09T22:28:48.217Z,94.11
2022-09-09T22:31:15.055Z,93.75
2022-09-09T22:33:41.682Z,93.81
2022-09-09T22:36:08.675Z,93.98
2022-09-09T22:38:36.374Z,93.86
2022-09-09T22:41:05.436Z,93.65
2022-09-09T22:43:35.316Z,93.79
2022-09-09T22:46:02.590Z,93.72
2022-09-09T22:48:36.994Z,93.49
2022-09-09T22:51:10.375Z,93.83
2022-09-09T22:53:37.583Z,93.61
2022-09-09T22:56:07.034Z,93.46
2022-09-09T22:58:36.843Z,93.75
2022-09-09T23:01:24.696Z,93.67
2022-09-09T23:03:52.099Z,93.62
2022-09-09T23:06:23.359Z,93.58
2022-09-09T23:08:58.170Z,93.70
2022-09-09T23:11:29.167Z,93.55
2022-09-09T23:13:56.955Z,93.81
2022-09-09T23:16:25.982Z,93.63
2022-09-09T23:18:55.025Z,93.82
2022-09-09T23:21:26.160Z,93.67
2022-09-09T23:23:54.282Z,93.54
2022-09-09T23:26:21.047Z,93.49
2022-09-09T23:28:49.687Z,93.50
2022-09-09T23:31:19.850Z,93.58
2022-09-09T23:33:46.954Z,93.65
2022-09-09T23:36:16.049Z,93.47
2022-09-09T23:38:43.587Z,93.51
2022-09-09T23:41:13.078Z,93.44
2022-09-09T23:43:40.005Z,93.33
2022-09-09T23:46:08.761Z,93.22
2022-09-09T23:48:39.063Z,92.95
2022-09-09T23:51:07.362Z,92.94
2022-09-09T23:53:33.792Z,93.01
2022-09-09T23:56:00.194Z,92.94
2022-09-09T23:58:26.679Z,92.85
